sensor_id;sensor_type;location;lat;lon;timestamp;P1;durP1;ratioP1;P2;durP2;ratioP2
68942;SDS011;60852;52.190;4.422;2022-09-09T00:00:27;4.38;;;4.38;;
68942;SDS011;60852;52.190;4.422;2022-09-09T00:03:07;4.12;;;4.12;;
68942;SDS011;60852;52.190;4.422;2022-09-09T00:05:42;4.17;;;4.17;;
68942;SDS011;60852;52.190;4.422;2022-09-09T00:08:14;4.38;;;4.38;;
68942;SDS011;60852;52.190;4.422;2022-09-09T00:10:46;4.56;;;4.56;;
68942;SDS011;60852;52.190;4.422;2022-09-09T00:13:37;4.32;;;4.32;;
68942;SDS011;60852;52.190;4.422;2022-09-09T00:16:15;4.76;;;4.76;;
68942;SDS011;60852;52.190;4.422;2022-09-09T00:21:15;4.96;;;4.96;;
68942;SDS011;60852;52.190;4.422;2022-09-09T00:23:44;5.19;;;5.19;;
68942;SDS011;60852;52.190;4.422;2022-09-09T00:27:04;5.37;;;5.37;;
68942;SDS011;60852;52.190;4.422;2022-09-09T00:29:09;5.38;;;5.38;;
68942;SDS011;60852;52.190;4.422;2022-09-09T00:31:59;5.75;;;5.75;;
68942;SDS011;60852;52.190;4.422;2022-09-09T00:34:37;5.39;;;5.39;;
68942;SDS011;60852;52.190;4.422;2022-09-09T00:37:31;5.84;;;5.84;;
68942;SDS011;60852;52.190;4.422;2022-09-09T00:39:59;6.04;;;6.04;;
68942;SDS011;60852;52.190;4.422;2022-09-09T00:42:40;6.26;;;6.26;;
68942;SDS011;60852;52.190;4.422;2022-09-09T00:50:17;6.68;;;6.68;;
68942;SDS011;60852;52.190;4.422;2022-09-09T00:58:09;7.57;;;7.57;;
68942;SDS011;60852;52.190;4.422;2022-09-09T01:03:37;8.37;;;8.37;;
68942;SDS011;60852;52.190;4.422;2022-09-09T01:09:05;8.74;;;8.74;;
68942;SDS011;60852;52.190;4.422;2022-09-09T01:19:45;11.71;;;11.71;;
68942;SDS011;60852;52.190;4.422;2022-09-09T01:22:29;12.61;;;12.61;;
68942;SDS011;60852;52.190;4.422;2022-09-09T01:27:49;14.05;;;14.05;;
68942;SDS011;60852;52.190;4.422;2022-09-09T01:30:20;15.01;;;15.01;;
68942;SDS011;60852;52.190;4.422;2022-09-09T01:32:52;14.82;;;14.82;;
68942;SDS011;60852;52.190;4.422;2022-09-09T01:35:32;13.63;;;13.56;;
68942;SDS011;60852;52.190;4.422;2022-09-09T01:38:01;12.70;;;12.70;;
68942;SDS011;60852;52.190;4.422;2022-09-09T01:40:27;11.74;;;11.74;;
68942;SDS011;60852;52.190;4.422;2022-09-09T01:42:53;10.53;;;10.53;;
68942;SDS011;60852;52.190;4.422;2022-09-09T01:45:19;9.87;;;9.83;;
68942;SDS011;60852;52.190;4.422;2022-09-09T01:47:47;9.74;;;9.74;;
68942;SDS011;60852;52.190;4.422;2022-09-09T01:50:14;9.29;;;9.28;;
68942;SDS011;60852;52.190;4.422;2022-09-09T01:52:42;9.04;;;9.04;;
68942;SDS011;60852;52.190;4.422;2022-09-09T01:55:10;9.66;;;9.66;;
68942;SDS011;60852;52.190;4.422;2022-09-09T01:57:43;9.07;;;9.07;;
68942;SDS011;60852;52.190;4.422;2022-09-09T02:00:23;9.31;;;9.31;;
68942;SDS011;60852;52.190;4.422;2022-09-09T02:08:06;9.27;;;9.27;;
68942;SDS011;60852;52.190;4.422;2022-09-09T02:13:19;9.35;;;9.35;;
68942;SDS011;60852;52.190;4.422;2022-09-09T02:15:51;9.77;;;9.76;;
68942;SDS011;60852;52.190;4.422;2022-09-09T02:18:27;9.31;;;9.28;;
68942;SDS011;60852;52.190;4.422;2022-09-09T02:20:58;9.33;;;9.33;;
68942;SDS011;60852;52.190;4.422;2022-09-09T02:23:24;8.72;;;8.72;;
68942;SDS011;60852;52.190;4.422;2022-09-09T02:25:51;9.03;;;9.03;;
68942;SDS011;60852;52.190;4.422;2022-09-09T02:28:21;8.87;;;8.86;;
68942;SDS011;60852;52.190;4.422;2022-09-09T02:30:52;9.34;;;9.27;;
68942;SDS011;60852;52.190;4.422;2022-09-09T02:33:21;9.03;;;8.99;;
68942;SDS011;60852;52.190;4.422;2022-09-09T02:35:52;9.39;;;9.34;;
68942;SDS011;60852;52.190;4.422;2022-09-09T02:38:21;9.30;;;9.25;;
68942;SDS011;60852;52.190;4.422;2022-09-09T02:40:53;8.69;;;8.69;;
68942;SDS011;60852;52.190;4.422;2022-09-09T02:43:19;9.43;;;9.16;;
68942;SDS011;60852;52.190;4.422;2022-09-09T02:51:51;8.95;;;8.95;;
68942;SDS011;60852;52.190;4.422;2022-09-09T02:54:31;9.04;;;9.04;;
68942;SDS011;60852;52.190;4.422;2022-09-09T02:57:04;8.77;;;8.77;;
68942;SDS011;60852;52.190;4.422;2022-09-09T02:59:41;8.31;;;8.26;;
68942;SDS011;60852;52.190;4.422;2022-09-09T03:02:10;8.48;;;8.48;;
68942;SDS011;60852;52.190;4.422;2022-09-09T03:04:39;8.24;;;8.24;;
68942;SDS011;60852;52.190;4.422;2022-09-09T03:07:06;7.75;;;7.75;;
68942;SDS011;60852;52.190;4.422;2022-09-09T03:09:32;7.40;;;7.40;;
68942;SDS011;60852;52.190;4.422;2022-09-09T03:11:57;7.11;;;7.11;;
68942;SDS011;60852;52.190;4.422;2022-09-09T03:14:23;6.64;;;6.64;;
68942;SDS011;60852;52.190;4.422;2022-09-09T03:16:52;5.96;;;5.96;;
68942;SDS011;60852;52.190;4.422;2022-09-09T03:19:19;5.81;;;5.81;;
68942;SDS011;60852;52.190;4.422;2022-09-09T03:21:45;5.49;;;5.49;;
68942;SDS011;60852;52.190;4.422;2022-09-09T03:24:11;5.32;;;5.32;;
68942;SDS011;60852;52.190;4.422;2022-09-09T03:26:38;5.02;;;4.98;;
68942;SDS011;60852;52.190;4.422;2022-09-09T03:29:05;4.81;;;4.79;;
68942;SDS011;60852;52.190;4.422;2022-09-09T03:31:31;4.46;;;4.44;;
68942;SDS011;60852;52.190;4.422;2022-09-09T03:34:01;4.72;;;4.68;;
68942;SDS011;60852;52.190;4.422;2022-09-09T03:36:27;4.31;;;4.31;;
68942;SDS011;60852;52.190;4.422;2022-09-09T03:38:54;3.95;;;3.95;;
68942;SDS011;60852;52.190;4.422;2022-09-09T03:41:20;4.01;;;4.01;;
68942;SDS011;60852;52.190;4.422;2022-09-09T03:43:52;4.06;;;4.06;;
68942;SDS011;60852;52.190;4.422;2022-09-09T03:46:22;4.18;;;4.15;;
68942;SDS011;60852;52.190;4.422;2022-09-09T03:48:49;4.01;;;3.97;;
68942;SDS011;60852;52.190;4.422;2022-09-09T03:51:15;3.70;;;3.70;;
68942;SDS011;60852;52.190;4.422;2022-09-09T03:53:41;3.73;;;3.71;;
68942;SDS011;60852;52.190;4.422;2022-09-09T03:56:08;3.81;;;3.79;;
68942;SDS011;60852;52.190;4.422;2022-09-09T03:58:34;3.33;;;3.31;;
68942;SDS011;60852;52.190;4.422;2022-09-09T04:01:02;3.22;;;3.22;;
68942;SDS011;60852;52.190;4.422;2022-09-09T04:03:30;4.38;;;4.38;;
68942;SDS011;60852;52.190;4.422;2022-09-09T04:05:56;3.62;;;3.62;;
68942;SDS011;60852;52.190;4.422;2022-09-09T04:08:24;3.37;;;3.37;;
68942;SDS011;60852;52.190;4.422;2022-09-09T04:10:53;3.39;;;3.39;;
68942;SDS011;60852;52.190;4.422;2022-09-09T04:13:23;3.68;;;3.63;;
68942;SDS011;60852;52.190;4.422;2022-09-09T04:15:51;3.65;;;3.58;;
68942;SDS011;60852;52.190;4.422;2022-09-09T04:18:18;3.27;;;3.25;;
68942;SDS011;60852;52.190;4.422;2022-09-09T04:20:48;3.48;;;3.48;;
68942;SDS011;60852;52.190;4.422;2022-09-09T04:23:15;3.62;;;3.62;;
68942;SDS011;60852;52.190;4.422;2022-09-09T04:26:02;3.50;;;3.50;;
68942;SDS011;60852;52.190;4.422;2022-09-09T04:28:30;3.39;;;3.38;;
68942;SDS011;60852;52.190;4.422;2022-09-09T04:31:03;3.46;;;3.44;;
68942;SDS011;60852;52.190;4.422;2022-09-09T04:33:34;3.67;;;3.67;;
68942;SDS011;60852;52.190;4.422;2022-09-09T04:35:59;3.60;;;3.60;;
68942;SDS011;60852;52.190;4.422;2022-09-09T04:38:25;3.46;;;3.46;;
68942;SDS011;60852;52.190;4.422;2022-09-09T04:40:51;3.58;;;3.58;;
68942;SDS011;60852;52.190;4.422;2022-09-09T04:43:19;3.74;;;3.71;;
68942;SDS011;60852;52.190;4.422;2022-09-09T04:45:49;3.93;;;3.88;;
68942;SDS011;60852;52.190;4.422;2022-09-09T04:48:16;3.92;;;3.89;;
68942;SDS011;60852;52.190;4.422;2022-09-09T04:50:42;3.82;;;3.80;;
68942;SDS011;60852;52.190;4.422;2022-09-09T04:53:08;3.82;;;3.82;;
68942;SDS011;60852;52.190;4.422;2022-09-09T04:55:34;4.31;;;4.31;;
68942;SDS011;60852;52.190;4.422;2022-09-09T04:58:07;3.95;;;3.95;;
68942;SDS011;60852;52.190;4.422;2022-09-09T05:00:35;4.10;;;4.10;;
68942;SDS011;60852;52.190;4.422;2022-09-09T05:03:04;4.23;;;4.20;;
68942;SDS011;60852;52.190;4.422;2022-09-09T05:05:31;4.16;;;4.12;;
68942;SDS011;60852;52.190;4.422;2022-09-09T05:08:04;4.10;;;4.09;;
68942;SDS011;60852;52.190;4.422;2022-09-09T05:10:32;4.05;;;4.05;;
68942;SDS011;60852;52.190;4.422;2022-09-09T05:12:59;3.95;;;3.95;;
68942;SDS011;60852;52.190;4.422;2022-09-09T05:15:25;3.74;;;3.72;;
68942;SDS011;60852;52.190;4.422;2022-09-09T05:17:50;4.04;;;4.03;;
68942;SDS011;60852;52.190;4.422;2022-09-09T05:20:17;4.17;;;4.14;;
68942;SDS011;60852;52.190;4.422;2022-09-09T05:22:43;3.89;;;3.89;;
68942;SDS011;60852;52.190;4.422;2022-09-09T05:25:09;3.68;;;3.68;;
68942;SDS011;60852;52.190;4.422;2022-09-09T05:27:34;3.57;;;3.57;;
68942;SDS011;60852;52.190;4.422;2022-09-09T05:30:00;3.89;;;3.89;;
68942;SDS011;60852;52.190;4.422;2022-09-09T05:32:25;3.70;;;3.70;;
68942;SDS011;60852;52.190;4.422;2022-09-09T05:34:51;3.65;;;3.64;;
68942;SDS011;60852;52.190;4.422;2022-09-09T05:37:17;3.68;;;3.67;;
68942;SDS011;60852;52.190;4.422;2022-09-09T05:39:43;3.59;;;3.59;;
68942;SDS011;60852;52.190;4.422;2022-09-09T05:42:08;3.64;;;3.64;;
68942;SDS011;60852;52.190;4.422;2022-09-09T05:44:34;3.53;;;3.51;;
68942;SDS011;60852;52.190;4.422;2022-09-09T05:46:59;4.00;;;3.93;;
68942;SDS011;60852;52.190;4.422;2022-09-09T05:49:25;3.87;;;3.81;;
68942;SDS011;60852;52.190;4.422;2022-09-09T05:51:50;3.59;;;3.56;;
68942;SDS011;60852;52.190;4.422;2022-09-09T05:54:16;3.70;;;3.68;;
68942;SDS011;60852;52.190;4.422;2022-09-09T05:56:42;3.78;;;3.75;;
68942;SDS011;60852;52.190;4.422;2022-09-09T05:59:08;3.89;;;3.84;;
68942;SDS011;60852;52.190;4.422;2022-09-09T06:01:35;4.19;;;4.14;;
68942;SDS011;60852;52.190;4.422;2022-09-09T06:04:02;3.83;;;3.82;;
68942;SDS011;60852;52.190;4.422;2022-09-09T06:06:32;3.74;;;3.74;;
68942;SDS011;60852;52.190;4.422;2022-09-09T06:09:05;3.70;;;3.70;;
68942;SDS011;60852;52.190;4.422;2022-09-09T06:11:34;3.61;;;3.60;;
68942;SDS011;60852;52.190;4.422;2022-09-09T06:14:04;3.46;;;3.45;;
68942;SDS011;60852;52.190;4.422;2022-09-09T06:16:30;3.59;;;3.58;;
68942;SDS011;60852;52.190;4.422;2022-09-09T06:18:57;3.50;;;3.49;;
68942;SDS011;60852;52.190;4.422;2022-09-09T06:21:24;3.35;;;3.32;;
68942;SDS011;60852;52.190;4.422;2022-09-09T06:23:52;3.61;;;3.49;;
68942;SDS011;60852;52.190;4.422;2022-09-09T06:26:24;3.98;;;3.81;;
68942;SDS011;60852;52.190;4.422;2022-09-09T06:28:51;3.55;;;3.49;;
68942;SDS011;60852;52.190;4.422;2022-09-09T06:31:21;3.72;;;3.68;;
68942;SDS011;60852;52.190;4.422;2022-09-09T06:33:50;4.16;;;3.99;;
68942;SDS011;60852;52.190;4.422;2022-09-09T06:36:17;4.44;;;4.24;;
68942;SDS011;60852;52.190;4.422;2022-09-09T06:38:48;4.35;;;4.30;;
68942;SDS011;60852;52.190;4.422;2022-09-09T06:41:14;4.05;;;4.05;;
68942;SDS011;60852;52.190;4.422;2022-09-09T06:43:43;4.21;;;4.21;;
68942;SDS011;60852;52.190;4.422;2022-09-09T06:46:13;4.88;;;4.88;;
68942;SDS011;60852;52.190;4.422;2022-09-09T06:48:41;5.01;;;5.01;;
68942;SDS011;60852;52.190;4.422;2022-09-09T06:51:16;5.28;;;5.28;;
68942;SDS011;60852;52.190;4.422;2022-09-09T06:53:44;5.12;;;5.12;;
68942;SDS011;60852;52.190;4.422;2022-09-09T06:58:43;5.26;;;5.26;;
68942;SDS011;60852;52.190;4.422;2022-09-09T07:01:12;5.36;;;5.36;;
68942;SDS011;60852;52.190;4.422;2022-09-09T07:03:39;5.27;;;5.27;;
68942;SDS011;60852;52.190;4.422;2022-09-09T07:06:05;5.51;;;5.51;;
68942;SDS011;60852;52.190;4.422;2022-09-09T07:08:32;5.57;;;5.57;;
68942;SDS011;60852;52.190;4.422;2022-09-09T07:11:05;5.66;;;5.66;;
68942;SDS011;60852;52.190;4.422;2022-09-09T07:13:32;6.18;;;6.18;;
68942;SDS011;60852;52.190;4.422;2022-09-09T07:16:09;6.13;;;6.13;;
68942;SDS011;60852;52.190;4.422;2022-09-09T07:18:36;5.79;;;5.79;;
68942;SDS011;60852;52.190;4.422;2022-09-09T07:21:02;5.63;;;5.63;;
68942;SDS011;60852;52.190;4.422;2022-09-09T07:23:29;5.67;;;5.67;;
68942;SDS011;60852;52.190;4.422;2022-09-09T07:25:55;5.70;;;5.70;;
68942;SDS011;60852;52.190;4.422;2022-09-09T07:28:22;5.54;;;5.54;;
68942;SDS011;60852;52.190;4.422;2022-09-09T07:33:21;5.38;;;5.38;;
68942;SDS011;60852;52.190;4.422;2022-09-09T07:35:47;5.35;;;5.35;;
68942;SDS011;60852;52.190;4.422;2022-09-09T07:38:12;5.80;;;5.80;;
68942;SDS011;60852;52.190;4.422;2022-09-09T07:40:37;5.80;;;5.80;;
68942;SDS011;60852;52.190;4.422;2022-09-09T07:43:04;5.48;;;5.48;;
68942;SDS011;60852;52.190;4.422;2022-09-09T07:45:30;5.41;;;5.41;;
68942;SDS011;60852;52.190;4.422;2022-09-09T07:47:57;5.13;;;5.13;;
68942;SDS011;60852;52.190;4.422;2022-09-09T07:50:23;5.51;;;5.51;;
68942;SDS011;60852;52.190;4.422;2022-09-09T07:52:50;5.75;;;5.75;;
68942;SDS011;60852;52.190;4.422;2022-09-09T07:55:16;5.51;;;5.51;;
68942;SDS011;60852;52.190;4.422;2022-09-09T07:57:41;5.79;;;5.79;;
68942;SDS011;60852;52.190;4.422;2022-09-09T08:00:07;5.65;;;5.65;;
68942;SDS011;60852;52.190;4.422;2022-09-09T08:02:33;5.75;;;5.75;;
68942;SDS011;60852;52.190;4.422;2022-09-09T08:04:58;5.42;;;5.42;;
68942;SDS011;60852;52.190;4.422;2022-09-09T08:07:24;5.88;;;5.88;;
68942;SDS011;60852;52.190;4.422;2022-09-09T08:09:49;5.40;;;5.40;;
68942;SDS011;60852;52.190;4.422;2022-09-09T08:12:15;5.43;;;5.43;;
68942;SDS011;60852;52.190;4.422;2022-09-09T08:14:41;5.74;;;5.74;;
68942;SDS011;60852;52.190;4.422;2022-09-09T08:17:07;5.96;;;5.96;;
68942;SDS011;60852;52.190;4.422;2022-09-09T08:19:32;5.24;;;5.24;;
68942;SDS011;60852;52.190;4.422;2022-09-09T08:22:01;5.02;;;5.02;;
68942;SDS011;60852;52.190;4.422;2022-09-09T08:24:28;5.30;;;5.30;;
68942;SDS011;60852;52.190;4.422;2022-09-09T08:26:53;5.39;;;5.39;;
68942;SDS011;60852;52.190;4.422;2022-09-09T08:29:19;4.67;;;4.67;;
68942;SDS011;60852;52.190;4.422;2022-09-09T08:31:52;5.02;;;5.02;;
68942;SDS011;60852;52.190;4.422;2022-09-09T08:34:20;4.82;;;4.82;;
68942;SDS011;60852;52.190;4.422;2022-09-09T08:36:47;4.60;;;4.60;;
68942;SDS011;60852;52.190;4.422;2022-09-09T08:39:14;4.82;;;4.82;;
68942;SDS011;60852;52.190;4.422;2022-09-09T08:41:52;4.80;;;4.80;;
68942;SDS011;60852;52.190;4.422;2022-09-09T08:52:54;4.46;;;4.46;;
68942;SDS011;60852;52.190;4.422;2022-09-09T08:55:38;4.72;;;4.72;;
68942;SDS011;60852;52.190;4.422;2022-09-09T08:58:15;4.55;;;4.55;;
68942;SDS011;60852;52.190;4.422;2022-09-09T09:06:20;4.51;;;4.51;;
68942;SDS011;60852;52.190;4.422;2022-09-09T09:09:01;4.45;;;4.45;;
68942;SDS011;60852;52.190;4.422;2022-09-09T09:14:23;3.88;;;3.88;;
68942;SDS011;60852;52.190;4.422;2022-09-09T09:16:55;3.88;;;3.88;;
68942;SDS011;60852;52.190;4.422;2022-09-09T09:19:34;4.19;;;4.19;;
68942;SDS011;60852;52.190;4.422;2022-09-09T09:22:06;4.34;;;4.34;;
68942;SDS011;60852;52.190;4.422;2022-09-09T09:24:49;4.65;;;4.65;;
68942;SDS011;60852;52.190;4.422;2022-09-09T09:27:30;4.67;;;4.67;;
68942;SDS011;60852;52.190;4.422;2022-09-09T09:30:05;4.36;;;4.36;;
68942;SDS011;60852;52.190;4.422;2022-09-09T09:32:52;4.70;;;4.70;;
68942;SDS011;60852;52.190;4.422;2022-09-09T09:35:23;4.94;;;4.94;;
68942;SDS011;60852;52.190;4.422;2022-09-09T09:37:49;4.73;;;4.73;;
68942;SDS011;60852;52.190;4.422;2022-09-09T09:40:16;4.55;;;4.55;;
68942;SDS011;60852;52.190;4.422;2022-09-09T09:45:34;4.49;;;4.49;;
68942;SDS011;60852;52.190;4.422;2022-09-09T09:48:09;5.27;;;5.27;;
68942;SDS011;60852;52.190;4.422;2022-09-09T09:50:40;4.45;;;4.45;;
68942;SDS011;60852;52.190;4.422;2022-09-09T09:53:25;4.48;;;4.48;;
68942;SDS011;60852;52.190;4.422;2022-09-09T09:56:04;4.48;;;4.48;;
68942;SDS011;60852;52.190;4.422;2022-09-09T09:58:48;4.61;;;4.61;;
68942;SDS011;60852;52.190;4.422;2022-09-09T10:01:29;4.61;;;4.61;;
68942;SDS011;60852;52.190;4.422;2022-09-09T10:03:59;4.70;;;4.70;;
68942;SDS011;60852;52.190;4.422;2022-09-09T10:06:48;4.70;;;4.70;;
68942;SDS011;60852;52.190;4.422;2022-09-09T10:09:25;4.70;;;4.70;;
68942;SDS011;60852;52.190;4.422;2022-09-09T10:20:52;5.22;;;5.22;;
68942;SDS011;60852;52.190;4.422;2022-09-09T10:29:31;5.30;;;5.30;;
68942;SDS011;60852;52.190;4.422;2022-09-09T10:34:53;5.58;;;5.58;;
68942;SDS011;60852;52.190;4.422;2022-09-09T10:37:35;5.29;;;5.29;;
68942;SDS011;60852;52.190;4.422;2022-09-09T10:43:01;5.50;;;5.50;;
68942;SDS011;60852;52.190;4.422;2022-09-09T10:46:16;5.23;;;5.23;;
68942;SDS011;60852;52.190;4.422;2022-09-09T10:48:28;5.04;;;5.04;;
68942;SDS011;60852;52.190;4.422;2022-09-09T10:54:00;4.94;;;4.94;;
68942;SDS011;60852;52.190;4.422;2022-09-09T10:56:38;5.37;;;5.37;;
68942;SDS011;60852;52.190;4.422;2022-09-09T10:59:13;5.91;;;5.91;;
68942;SDS011;60852;52.190;4.422;2022-09-09T11:04:18;4.31;;;4.31;;
68942;SDS011;60852;52.190;4.422;2022-09-09T11:06:52;4.48;;;4.48;;
68942;SDS011;60852;52.190;4.422;2022-09-09T11:09:22;4.84;;;4.84;;
68942;SDS011;60852;52.190;4.422;2022-09-09T11:11:52;4.63;;;4.63;;
68942;SDS011;60852;52.190;4.422;2022-09-09T11:14:28;4.81;;;4.81;;
68942;SDS011;60852;52.190;4.422;2022-09-09T11:17:27;4.77;;;4.77;;
68942;SDS011;60852;52.190;4.422;2022-09-09T11:19:58;5.09;;;5.09;;
68942;SDS011;60852;52.190;4.422;2022-09-09T11:41:51;4.08;;;4.08;;
68942;SDS011;60852;52.190;4.422;2022-09-09T11:44:23;4.25;;;4.25;;
68942;SDS011;60852;52.190;4.422;2022-09-09T11:46:55;4.06;;;4.06;;
68942;SDS011;60852;52.190;4.422;2022-09-09T11:52:20;4.25;;;4.25;;
68942;SDS011;60852;52.190;4.422;2022-09-09T11:54:47;4.16;;;4.16;;
68942;SDS011;60852;52.190;4.422;2022-09-09T11:57:25;3.91;;;3.91;;
68942;SDS011;60852;52.190;4.422;2022-09-09T11:59:57;4.21;;;4.21;;
68942;SDS011;60852;52.190;4.422;2022-09-09T12:02:24;4.71;;;4.71;;
68942;SDS011;60852;52.190;4.422;2022-09-09T12:04:56;4.94;;;4.94;;
68942;SDS011;60852;52.190;4.422;2022-09-09T12:12:43;4.22;;;4.22;;
68942;SDS011;60852;52.190;4.422;2022-09-09T12:17:41;4.87;;;4.87;;
68942;SDS011;60852;52.190;4.422;2022-09-09T12:20:16;4.88;;;4.88;;
68942;SDS011;60852;52.190;4.422;2022-09-09T12:31:44;4.03;;;4.03;;
68942;SDS011;60852;52.190;4.422;2022-09-09T12:37:13;3.04;;;3.04;;
68942;SDS011;60852;52.190;4.422;2022-09-09T12:39:59;3.09;;;3.09;;
68942;SDS011;60852;52.190;4.422;2022-09-09T12:42:28;3.22;;;3.22;;
68942;SDS011;60852;52.190;4.422;2022-09-09T12:45:00;3.03;;;3.03;;
68942;SDS011;60852;52.190;4.422;2022-09-09T12:47:37;3.18;;;3.18;;
68942;SDS011;60852;52.190;4.422;2022-09-09T12:50:15;3.08;;;3.08;;
68942;SDS011;60852;52.190;4.422;2022-09-09T12:52:46;3.22;;;3.22;;
68942;SDS011;60852;52.190;4.422;2022-09-09T12:55:19;3.66;;;3.66;;
68942;SDS011;60852;52.190;4.422;2022-09-09T12:57:50;3.37;;;3.37;;
68942;SDS011;60852;52.190;4.422;2022-09-09T13:00:21;3.46;;;3.46;;
68942;SDS011;60852;52.190;4.422;2022-09-09T13:02:56;3.39;;;3.39;;
68942;SDS011;60852;52.190;4.422;2022-09-09T13:05:28;3.05;;;3.05;;
68942;SDS011;60852;52.190;4.422;2022-09-09T13:08:01;3.00;;;3.00;;
68942;SDS011;60852;52.190;4.422;2022-09-09T13:10:28;2.99;;;2.99;;
68942;SDS011;60852;52.190;4.422;2022-09-09T13:13:00;3.11;;;3.11;;
68942;SDS011;60852;52.190;4.422;2022-09-09T13:15:27;2.94;;;2.94;;
68942;SDS011;60852;52.190;4.422;2022-09-09T13:17:58;2.81;;;2.81;;
68942;SDS011;60852;52.190;4.422;2022-09-09T13:20:28;3.04;;;3.04;;
68942;SDS011;60852;52.190;4.422;2022-09-09T13:22:54;3.03;;;3.03;;
68942;SDS011;60852;52.190;4.422;2022-09-09T13:25:29;3.09;;;3.09;;
68942;SDS011;60852;52.190;4.422;2022-09-09T13:27:59;2.69;;;2.69;;
68942;SDS011;60852;52.190;4.422;2022-09-09T13:32:59;2.41;;;2.41;;
68942;SDS011;60852;52.190;4.422;2022-09-09T13:35:26;2.25;;;2.25;;
68942;SDS011;60852;52.190;4.422;2022-09-09T13:37:52;2.53;;;2.53;;
68942;SDS011;60852;52.190;4.422;2022-09-09T13:40:19;2.26;;;2.26;;
68942;SDS011;60852;52.190;4.422;2022-09-09T13:42:46;2.31;;;2.31;;
68942;SDS011;60852;52.190;4.422;2022-09-09T13:45:25;2.45;;;2.45;;
68942;SDS011;60852;52.190;4.422;2022-09-09T13:47:52;2.27;;;2.27;;
68942;SDS011;60852;52.190;4.422;2022-09-09T13:50:27;2.22;;;2.22;;
68942;SDS011;60852;52.190;4.422;2022-09-09T13:52:58;2.25;;;2.25;;
68942;SDS011;60852;52.190;4.422;2022-09-09T13:55:24;2.11;;;2.11;;
68942;SDS011;60852;52.190;4.422;2022-09-09T13:58:02;2.19;;;2.19;;
68942;SDS011;60852;52.190;4.422;2022-09-09T14:00:30;2.04;;;2.04;;
68942;SDS011;60852;52.190;4.422;2022-09-09T14:02:59;1.97;;;1.97;;
68942;SDS011;60852;52.190;4.422;2022-09-09T14:05:27;1.60;;;1.60;;
68942;SDS011;60852;52.190;4.422;2022-09-09T14:07:54;1.61;;;1.61;;
68942;SDS011;60852;52.190;4.422;2022-09-09T14:10:20;1.89;;;1.89;;
68942;SDS011;60852;52.190;4.422;2022-09-09T14:12:46;2.10;;;2.05;;
68942;SDS011;60852;52.190;4.422;2022-09-09T14:15:11;2.05;;;1.88;;
68942;SDS011;60852;52.190;4.422;2022-09-09T14:17:37;2.44;;;2.18;;
68942;SDS011;60852;52.190;4.422;2022-09-09T14:20:03;2.27;;;2.01;;
68942;SDS011;60852;52.190;4.422;2022-09-09T14:22:33;2.16;;;1.96;;
68942;SDS011;60852;52.190;4.422;2022-09-09T14:24:58;1.71;;;1.55;;
68942;SDS011;60852;52.190;4.422;2022-09-09T14:27:24;1.87;;;1.66;;
68942;SDS011;60852;52.190;4.422;2022-09-09T14:29:51;2.11;;;1.86;;
68942;SDS011;60852;52.190;4.422;2022-09-09T14:32:17;2.12;;;1.89;;
68942;SDS011;60852;52.190;4.422;2022-09-09T14:34:43;2.83;;;2.49;;
68942;SDS011;60852;52.190;4.422;2022-09-09T14:37:09;3.31;;;2.84;;
68942;SDS011;60852;52.190;4.422;2022-09-09T14:39:35;2.82;;;2.47;;
68942;SDS011;60852;52.190;4.422;2022-09-09T14:42:00;3.00;;;2.59;;
68942;SDS011;60852;52.190;4.422;2022-09-09T14:44:27;3.63;;;2.99;;
68942;SDS011;60852;52.190;4.422;2022-09-09T14:46:53;3.59;;;2.95;;
68942;SDS011;60852;52.190;4.422;2022-09-09T14:49:19;3.47;;;2.85;;
68942;SDS011;60852;52.190;4.422;2022-09-09T14:51:45;3.85;;;3.14;;
68942;SDS011;60852;52.190;4.422;2022-09-09T14:54:10;3.37;;;2.80;;
68942;SDS011;60852;52.190;4.422;2022-09-09T14:56:35;3.01;;;2.56;;
68942;SDS011;60852;52.190;4.422;2022-09-09T14:59:02;2.96;;;2.56;;
68942;SDS011;60852;52.190;4.422;2022-09-09T15:01:28;3.15;;;2.78;;
68942;SDS011;60852;52.190;4.422;2022-09-09T15:03:56;3.58;;;3.02;;
68942;SDS011;60852;52.190;4.422;2022-09-09T15:06:24;4.29;;;3.36;;
68942;SDS011;60852;52.190;4.422;2022-09-09T15:08:52;5.70;;;4.21;;
68942;SDS011;60852;52.190;4.422;2022-09-09T15:11:19;5.67;;;4.01;;
68942;SDS011;60852;52.190;4.422;2022-09-09T15:13:45;5.87;;;4.10;;
68942;SDS011;60852;52.190;4.422;2022-09-09T15:16:15;4.61;;;3.37;;
68942;SDS011;60852;52.190;4.422;2022-09-09T15:18:43;4.35;;;3.34;;
68942;SDS011;60852;52.190;4.422;2022-09-09T15:21:10;4.68;;;3.63;;
68942;SDS011;60852;52.190;4.422;2022-09-09T15:23:46;4.60;;;3.63;;
68942;SDS011;60852;52.190;4.422;2022-09-09T15:26:16;3.75;;;3.07;;
68942;SDS011;60852;52.190;4.422;2022-09-09T15:28:42;3.33;;;2.80;;
68942;SDS011;60852;52.190;4.422;2022-09-09T15:31:14;3.34;;;2.82;;
68942;SDS011;60852;52.190;4.422;2022-09-09T15:36:15;3.15;;;2.66;;
68942;SDS011;60852;52.190;4.422;2022-09-09T15:38:44;3.30;;;2.76;;
68942;SDS011;60852;52.190;4.422;2022-09-09T15:41:10;3.05;;;2.63;;
68942;SDS011;60852;52.190;4.422;2022-09-09T15:43:37;2.93;;;2.62;;
68942;SDS011;60852;52.190;4.422;2022-09-09T15:46:25;3.38;;;3.03;;
68942;SDS011;60852;52.190;4.422;2022-09-09T15:48:53;3.26;;;2.92;;
68942;SDS011;60852;52.190;4.422;2022-09-09T15:51:21;3.00;;;2.67;;
68942;SDS011;60852;52.190;4.422;2022-09-09T15:53:48;2.89;;;2.56;;
68942;SDS011;60852;52.190;4.422;2022-09-09T15:56:19;3.05;;;2.72;;
68942;SDS011;60852;52.190;4.422;2022-09-09T15:58:44;2.81;;;2.56;;
68942;SDS011;60852;52.190;4.422;2022-09-09T16:01:10;3.09;;;2.80;;
68942;SDS011;60852;52.190;4.422;2022-09-09T16:03:41;3.00;;;2.76;;
68942;SDS011;60852;52.190;4.422;2022-09-09T16:06:07;3.13;;;2.93;;
68942;SDS011;60852;52.190;4.422;2022-09-09T16:08:41;2.95;;;2.75;;
68942;SDS011;60852;52.190;4.422;2022-09-09T16:11:16;14.03;;;13.91;;
68942;SDS011;60852;52.190;4.422;2022-09-09T16:13:45;19.56;;;19.35;;
68942;SDS011;60852;52.190;4.422;2022-09-09T16:16:12;2.71;;;2.68;;
68942;SDS011;60852;52.190;4.422;2022-09-09T16:18:41;2.80;;;2.74;;
68942;SDS011;60852;52.190;4.422;2022-09-09T16:21:14;7.36;;;7.27;;
68942;SDS011;60852;52.190;4.422;2022-09-09T16:23:41;6.09;;;6.09;;
68942;SDS011;60852;52.190;4.422;2022-09-09T16:26:10;3.50;;;3.50;;
68942;SDS011;60852;52.190;4.422;2022-09-09T16:28:37;12.42;;;12.42;;
68942;SDS011;60852;52.190;4.422;2022-09-09T16:31:08;6.38;;;6.38;;
68942;SDS011;60852;52.190;4.422;2022-09-09T16:33:36;2.93;;;2.93;;
68942;SDS011;60852;52.190;4.422;2022-09-09T16:36:06;3.03;;;3.03;;
68942;SDS011;60852;52.190;4.422;2022-09-09T16:38:37;3.32;;;3.32;;
68942;SDS011;60852;52.190;4.422;2022-09-09T16:41:04;8.12;;;8.12;;
68942;SDS011;60852;52.190;4.422;2022-09-09T16:43:34;3.58;;;3.58;;
68942;SDS011;60852;52.190;4.422;2022-09-09T16:46:01;7.92;;;7.92;;
68942;SDS011;60852;52.190;4.422;2022-09-09T16:48:33;4.53;;;4.53;;
68942;SDS011;60852;52.190;4.422;2022-09-09T16:51:05;3.74;;;3.74;;
68942;SDS011;60852;52.190;4.422;2022-09-09T16:53:33;3.63;;;3.63;;
68942;SDS011;60852;52.190;4.422;2022-09-09T16:56:06;3.56;;;3.53;;
68942;SDS011;60852;52.190;4.422;2022-09-09T16:58:33;3.92;;;3.88;;
68942;SDS011;60852;52.190;4.422;2022-09-09T17:00:59;3.99;;;3.91;;
68942;SDS011;60852;52.190;4.422;2022-09-09T17:03:26;4.78;;;4.78;;
68942;SDS011;60852;52.190;4.422;2022-09-09T17:05:52;3.23;;;3.23;;
68942;SDS011;60852;52.190;4.422;2022-09-09T17:08:17;3.01;;;3.01;;
68942;SDS011;60852;52.190;4.422;2022-09-09T17:10:43;3.58;;;3.58;;
68942;SDS011;60852;52.190;4.422;2022-09-09T17:13:10;9.45;;;9.45;;
68942;SDS011;60852;52.190;4.422;2022-09-09T17:15:39;17.60;;;17.60;;
68942;SDS011;60852;52.190;4.422;2022-09-09T17:18:08;7.99;;;7.99;;
68942;SDS011;60852;52.190;4.422;2022-09-09T17:20:37;4.31;;;4.31;;
68942;SDS011;60852;52.190;4.422;2022-09-09T17:23:05;3.29;;;3.29;;